Time;durP1;ratioP1;P1;durP2;ratioP2;P2;SDS_P1;SDS_P2;PMS_P1;PMS_P2;Temp;Humidity;BMP_temperature;BMP_pressure;BME280_temperature;BME280_humidity;BME280_pressure;Samples;Min_cycle;Max_cycle;Signal;HPM_P1;HPM_P2
2022/06/20 00:00:36;;;;;;;6.60;1.80;;;;;;;;;;5055359;28;20016;-72
2022/06/20 00:03:01;;;;;;;5.40;1.65;;;;;;;;;;5055663;28;20032;-72
2022/06/20 00:05:28;;;;;;;10.48;2.03;;;;;;;;;;5060698;28;20115;-72
2022/06/20 00:07:54;;;;;;;3.85;1.77;;;;;;;;;;5056851;28;20028;-72
2022/06/20 00:10:20;;;;;;;5.47;1.88;;;;;;;;;;5058397;28;20631;-71
2022/06/20 00:12:46;;;;;;;3.58;1.63;;;;;;;;;;5055534;28;20033;-71
2022/06/20 00:15:19;;;;;;;4.47;1.90;;;;;;;;;;5053318;28;20036;-72
2022/06/20 00:17:45;;;;;;;7.45;2.00;;;;;;;;;;5054843;28;20474;-72
2022/06/20 00:20:11;;;;;;;6.03;2.22;;;;;;;;;;5060515;28;20050;-72
2022/06/20 00:22:36;;;;;;;7.43;1.80;;;;;;;;;;5058315;28;20013;-72
2022/06/20 00:25:02;;;;;;;7.10;1.92;;;;;;;;;;5057150;28;20485;-72
2022/06/20 00:27:27;;;;;;;7.07;2.08;;;;;;;;;;5056619;28;20486;-72
2022/06/20 00:29:52;;;;;;;6.93;2.47;;;;;;;;;;5054677;28;20327;-72
2022/06/20 00:32:17;;;;;;;6.90;2.40;;;;;;;;;;5057581;28;20054;-72
2022/06/20 00:34:42;;;;;;;8.07;2.03;;;;;;;;;;5055817;28;20296;-72
2022/06/20 00:37:11;;;;;;;9.95;2.10;;;;;;;;;;5060026;28;20278;-71
2022/06/20 00:39:36;;;;;;;10.02;1.95;;;;;;;;;;5057511;28;20055;-71
2022/06/20 00:42:01;;;;;;;11.82;2.10;;;;;;;;;;5058334;28;20052;-71
2022/06/20 00:44:33;;;;;;;9.00;2.10;;;;;;;;;;5058531;28;20035;-71
2022/06/20 00:47:12;;;;;;;4.28;1.77;;;;;;;;;;5057898;28;20056;-71
2022/06/20 00:49:45;;;;;;;7.85;1.67;;;;;;;;;;5061097;28;20028;-72
2022/06/20 00:52:14;;;;;;;5.00;1.77;;;;;;;;;;5057830;28;20100;-71
2022/06/20 00:54:48;;;;;;;8.43;1.98;;;;;;;;;;5059671;28;20398;-71
2022/06/20 00:57:18;;;;;;;4.15;1.63;;;;;;;;;;5061434;28;20116;-71
2022/06/20 00:59:46;;;;;;;5.05;1.60;;;;;;;;;;5063810;28;20116;-71
2022/06/20 01:02:14;;;;;;;4.35;1.60;;;;;;;;;;5058558;28;20051;-71
2022/06/20 01:04:51;;;;;;;4.63;1.52;;;;;;;;;;5063726;28;20024;-71
2022/06/20 01:07:19;;;;;;;6.88;1.60;;;;;;;;;;5059389;28;20029;-71
2022/06/20 01:09:46;;;;;;;6.25;1.77;;;;;;;;;;5060566;28;20038;-71
2022/06/20 01:12:13;;;;;;;5.85;1.65;;;;;;;;;;5058677;28;20020;-71
2022/06/20 01:14:39;;;;;;;6.10;1.80;;;;;;;;;;5063543;28;20031;-71
2022/06/20 01:17:05;;;;;;;5.93;1.63;;;;;;;;;;5061738;28;20021;-72
2022/06/20 01:19:47;;;;;;;10.93;1.80;;;;;;;;;;5055842;28;20024;-72
2022/06/20 01:22:32;;;;;;;5.15;1.60;;;;;;;;;;5056364;28;20471;-72
2022/06/20 01:24:57;;;;;;;5.93;1.67;;;;;;;;;;5045519;28;20029;-71
2022/06/20 01:27:28;;;;;;;8.35;1.95;;;;;;;;;;5065451;28;20025;-71
2022/06/20 01:29:54;;;;;;;9.50;1.88;;;;;;;;;;5059010;28;20120;-71
2022/06/20 01:32:19;;;;;;;5.18;1.77;;;;;;;;;;5057847;28;20036;-71
2022/06/20 01:34:44;;;;;;;6.77;2.17;;;;;;;;;;5057763;28;20043;-71
2022/06/20 01:37:25;;;;;;;7.07;1.93;;;;;;;;;;5055989;28;20363;-71
2022/06/20 01:39:51;;;;;;;5.93;2.33;;;;;;;;;;5060284;28;20250;-71
2022/06/20 01:42:19;;;;;;;5.20;1.73;;;;;;;;;;5057869;28;20029;-71
2022/06/20 01:45:03;;;;;;;8.50;2.72;;;;;;;;;;5059494;28;20131;-71
2022/06/20 01:47:28;;;;;;;7.93;2.25;;;;;;;;;;5054482;28;20029;-71
2022/06/20 01:49:58;;;;;;;9.20;2.08;;;;;;;;;;5056106;28;20037;-71
2022/06/20 01:52:28;;;;;;;4.78;1.98;;;;;;;;;;5052779;28;20064;-71
2022/06/20 01:55:14;;;;;;;5.82;1.73;;;;;;;;;;5059106;28;20524;-72
2022/06/20 01:57:40;;;;;;;11.32;2.20;;;;;;;;;;5058627;28;20086;-72
2022/06/20 02:00:08;;;;;;;4.85;1.85;;;;;;;;;;5062645;28;20062;-72
2022/06/20 02:02:36;;;;;;;3.67;1.52;;;;;;;;;;5058821;28;20031;-71
2022/06/20 02:05:03;;;;;;;6.35;1.75;;;;;;;;;;5055853;28;20738;-71
2022/06/20 02:07:30;;;;;;;8.13;2.05;;;;;;;;;;5060863;28;20024;-70
2022/06/20 02:09:55;;;;;;;4.32;1.85;;;;;;;;;;5051126;28;20372;-71
2022/06/20 02:12:20;;;;;;;4.10;1.90;;;;;;;;;;5055726;28;20111;-71
2022/06/20 02:14:56;;;;;;;4.72;1.60;;;;;;;;;;5056927;28;20288;-71
2022/06/20 02:17:24;;;;;;;8.23;2.05;;;;;;;;;;5056773;28;20151;-71
2022/06/20 02:19:53;;;;;;;5.35;1.70;;;;;;;;;;5056113;28;20025;-71
2022/06/20 02:22:20;;;;;;;5.40;1.90;;;;;;;;;;5056673;28;20017;-71
2022/06/20 02:24:47;;;;;;;3.05;1.73;;;;;;;;;;5056070;28;20193;-71
2022/06/20 02:27:18;;;;;;;4.70;2.22;;;;;;;;;;5061679;28;20039;-71
2022/06/20 02:29:43;;;;;;;5.43;1.75;;;;;;;;;;5055042;28;20131;-71
2022/06/20 02:32:16;;;;;;;3.17;1.65;;;;;;;;;;5054639;28;20124;-71
2022/06/20 02:34:41;;;;;;;4.50;2.40;;;;;;;;;;5054071;28;20048;-71
2022/06/20 02:37:11;;;;;;;6.28;2.00;;;;;;;;;;5061463;28;20043;-71
2022/06/20 02:39:38;;;;;;;4.40;1.75;;;;;;;;;;5058085;28;20020;-71
2022/06/20 02:42:06;;;;;;;4.05;1.88;;;;;;;;;;5055258;28;20027;-71
2022/06/20 02:44:31;;;;;;;2.92;1.92;;;;;;;;;;5058461;28;20029;-71
2022/06/20 02:46:57;;;;;;;6.45;2.45;;;;;;;;;;5056560;28;20429;-71
2022/06/20 02:49:24;;;;;;;5.35;1.92;;;;;;;;;;5058966;28;20563;-71
2022/06/20 02:51:51;;;;;;;8.93;2.08;;;;;;;;;;5059591;28;20031;-71
2022/06/20 02:54:18;;;;;;;6.07;2.53;;;;;;;;;;5059479;28;20027;-71
2022/06/20 02:56:49;;;;;;;3.67;1.60;;;;;;;;;;5058984;28;20024;-71
2022/06/20 02:59:16;;;;;;;9.43;2.20;;;;;;;;;;5053053;28;20078;-71
2022/06/20 03:01:44;;;;;;;8.63;2.53;;;;;;;;;;5054317;28;20040;-71
2022/06/20 03:04:10;;;;;;;7.90;1.75;;;;;;;;;;5052796;28;20067;-71
2022/06/20 03:06:40;;;;;;;9.73;2.10;;;;;;;;;;5056264;28;20020;-71
2022/06/20 03:09:05;;;;;;;6.20;1.73;;;;;;;;;;5052644;28;20493;-71
2022/06/20 03:11:31;;;;;;;7.70;1.98;;;;;;;;;;5055787;28;20021;-71
2022/06/20 03:13:57;;;;;;;9.70;3.78;;;;;;;;;;5058899;28;20028;-70
2022/06/20 03:16:23;;;;;;;5.70;2.03;;;;;;;;;;5054243;28;20021;-71
2022/06/20 03:18:49;;;;;;;4.03;1.92;;;;;;;;;;5063279;28;20020;-71
2022/06/20 03:21:17;;;;;;;8.07;1.95;;;;;;;;;;5053003;28;20067;-71
2022/06/20 03:23:42;;;;;;;4.30;2.08;;;;;;;;;;5056921;28;20074;-71
2022/06/20 03:26:12;;;;;;;3.30;1.90;;;;;;;;;;5050557;28;20016;-71
2022/06/20 03:28:38;;;;;;;6.35;1.90;;;;;;;;;;5058340;28;20261;-71
2022/06/20 03:31:03;;;;;;;9.02;2.13;;;;;;;;;;5053650;28;20121;-71
2022/06/20 03:33:29;;;;;;;7.97;2.97;;;;;;;;;;5056954;28;20033;-71
2022/06/20 03:35:56;;;;;;;6.63;2.22;;;;;;;;;;5056383;28;20042;-71
2022/06/20 03:38:22;;;;;;;9.63;2.38;;;;;;;;;;5054286;28;20519;-71
2022/06/20 03:40:48;;;;;;;9.32;2.95;;;;;;;;;;5052973;28;20064;-71
2022/06/20 03:43:15;;;;;;;5.72;2.20;;;;;;;;;;5054703;28;20155;-71
2022/06/20 03:45:42;;;;;;;8.32;2.30;;;;;;;;;;5052497;28;20020;-72
2022/06/20 03:48:10;;;;;;;4.13;1.95;;;;;;;;;;5055413;28;20501;-71
2022/06/20 03:50:37;;;;;;;9.10;1.98;;;;;;;;;;5055123;28;20021;-71
2022/06/20 03:53:07;;;;;;;5.15;2.13;;;;;;;;;;5029322;28;20051;-71
2022/06/20 03:55:52;;;;;;;10.20;2.28;;;;;;;;;;5053364;28;20016;-72
2022/06/20 03:58:21;;;;;;;4.72;2.03;;;;;;;;;;5055811;28;20170;-72
2022/06/20 04:00:47;;;;;;;4.80;2.03;;;;;;;;;;5054503;28;20462;-72
2022/06/20 04:03:27;;;;;;;8.07;1.90;;;;;;;;;;5053402;28;20044;-72
2022/06/20 04:06:13;;;;;;;5.95;2.03;;;;;;;;;;5054287;28;20485;-72
2022/06/20 04:11:35;;;;;;;4.47;1.60;;;;;;;;;;5053117;28;20112;-71
2022/06/20 04:14:06;;;;;;;9.13;1.98;;;;;;;;;;5053552;28;20066;-71
2022/06/20 04:16:36;;;;;;;5.07;1.90;;;;;;;;;;5052367;28;20435;-71
2022/06/20 04:19:11;;;;;;;4.88;1.98;;;;;;;;;;5055999;28;20031;-71
2022/06/20 04:21:58;;;;;;;6.00;2.15;;;;;;;;;;5053660;28;20542;-72
2022/06/20 04:24:42;;;;;;;6.55;2.05;;;;;;;;;;5053039;28;20029;-72
2022/06/20 04:27:16;;;;;;;7.60;2.03;;;;;;;;;;5050361;28;20029;-72
2022/06/20 04:29:42;;;;;;;;;;;;;;;;;;5056126;28;20406;-72
2022/06/20 04:32:20;;;;;;;7.32;2.17;;;;;;;;;;5052840;28;20019;-71
2022/06/20 04:34:55;;;;;;;3.75;2.10;;;;;;;;;;5049940;28;20136;-72
2022/06/20 04:37:41;;;;;;;6.10;2.50;;;;;;;;;;5053932;28;20028;-72
2022/06/20 04:40:24;;;;;;;6.32;2.10;;;;;;;;;;5053544;28;20074;-71
2022/06/20 04:42:52;;;;;;;7.93;2.30;;;;;;;;;;5054380;28;20514;-72
2022/06/20 04:45:26;;;;;;;6.28;2.38;;;;;;;;;;5051170;28;20136;-68
2022/06/20 04:47:51;;;;;;;;;;;;;;;;;;5053084;28;20078;-71
2022/06/20 04:50:19;;;;;;;8.38;2.50;;;;;;;;;;5052496;28;19913;-70
2022/06/20 04:52:44;;;;;;;3.88;2.47;;;;;;;;;;5051674;28;21243;-71
2022/06/20 04:55:13;;;;;;;6.95;2.00;;;;;;;;;;5054068;28;20020;-71
2022/06/20 04:57:39;;;;;;;5.60;1.67;;;;;;;;;;5056378;28;20115;-73
2022/06/20 05:00:06;;;;;;;4.65;2.33;;;;;;;;;;5055286;28;20026;-71
2022/06/20 05:02:31;;;;;;;9.50;2.90;;;;;;;;;;5054317;28;20027;-71
2022/06/20 05:04:58;;;;;;;9.83;2.03;;;;;;;;;;5062206;28;20025;-71
2022/06/20 05:07:26;;;;;;;5.60;2.30;;;;;;;;;;5060592;28;20273;-71
2022/06/20 05:10:21;;;;;;;8.68;2.17;;;;;;;;;;5042269;28;20032;-71
2022/06/20 05:12:51;;;;;;;4.28;2.03;;;;;;;;;;5046614;28;20065;-70
2022/06/20 05:15:22;;;;;;;9.07;2.97;;;;;;;;;;5064379;28;20033;-70
2022/06/20 05:17:48;;;;;;;8.38;2.20;;;;;;;;;;5053560;28;20025;-71
2022/06/20 05:20:30;;;;;;;6.05;2.53;;;;;;;;;;5059390;28;20131;-71
2022/06/20 05:22:58;;;;;;;14.13;2.50;;;;;;;;;;5057274;28;20108;-71
2022/06/20 05:25:24;;;;;;;9.38;2.30;;;;;;;;;;5064929;28;20028;-70
2022/06/20 05:27:51;;;;;;;3.83;2.45;;;;;;;;;;5063335;28;20035;-70
2022/06/20 05:30:20;;;;;;;7.53;2.40;;;;;;;;;;5060367;28;20040;-71
2022/06/20 05:32:50;;;;;;;8.95;2.95;;;;;;;;;;5064855;28;20133;-70
2022/06/20 05:35:20;;;;;;;11.82;2.70;;;;;;;;;;5056335;28;20024;-71
2022/06/20 05:37:49;;;;;;;15.52;3.17;;;;;;;;;;5061792;28;20441;-71
2022/06/20 05:40:34;;;;;;;7.47;2.67;;;;;;;;;;5058821;28;20032;-71
2022/06/20 05:42:59;;;;;;;;;;;;;;;;;;5063521;28;20024;-71
2022/06/20 05:45:27;;;;;;;8.15;2.50;;;;;;;;;;5069300;28;19919;-71
2022/06/20 05:47:53;;;;;;;3.28;2.08;;;;;;;;;;5065049;28;20056;-71
2022/06/20 05:50:21;;;;;;;4.50;2.00;;;;;;;;;;5066245;28;20028;-71
2022/06/20 05:52:47;;;;;;;10.43;2.65;;;;;;;;;;5066037;28;20091;-71
2022/06/20 05:55:17;;;;;;;6.68;2.20;;;;;;;;;;5066438;28;20115;-71
2022/06/20 05:57:45;;;;;;;7.25;2.47;;;;;;;;;;5063064;28;20020;-70
2022/06/20 06:00:16;;;;;;;3.53;1.70;;;;;;;;;;5058515;28;20017;-70
2022/06/20 06:02:47;;;;;;;5.80;2.13;;;;;;;;;;5057399;28;20016;-70
2022/06/20 06:05:23;;;;;;;6.47;1.90;;;;;;;;;;5055512;28;20533;-71
2022/06/20 06:07:53;;;;;;;3.65;2.25;;;;;;;;;;5057231;28;20028;-70
2022/06/20 06:10:33;;;;;;;8.23;2.65;;;;;;;;;;5065046;28;20032;-70
2022/06/20 06:13:09;;;;;;;6.35;1.70;;;;;;;;;;5065190;28;20025;-70
2022/06/20 06:15:37;;;;;;;10.38;2.78;;;;;;;;;;5064710;28;20037;-70
2022/06/20 06:18:03;;;;;;;11.98;2.55;;;;;;;;;;5063785;28;20031;-70
2022/06/20 06:20:30;;;;;;;5.82;2.47;;;;;;;;;;5061963;28;20071;-70
2022/06/20 06:23:00;;;;;;;6.88;2.33;;;;;;;;;;5066440;28;20054;-70
2022/06/20 06:25:28;;;;;;;6.63;2.38;;;;;;;;;;5065684;28;20593;-70
2022/06/20 06:27:56;;;;;;;4.20;1.90;;;;;;;;;;5066138;28;20028;-70
2022/06/20 06:30:24;;;;;;;6.43;2.30;;;;;;;;;;5058690;28;20036;-70
2022/06/20 06:33:01;;;;;;;3.85;1.95;;;;;;;;;;5063624;28;20025;-70
2022/06/20 06:35:38;;;;;;;9.27;1.92;;;;;;;;;;5054020;28;20056;-70
2022/06/20 06:38:11;;;;;;;6.35;2.00;;;;;;;;;;5054985;28;20128;-70
2022/06/20 06:40:44;;;;;;;5.65;1.92;;;;;;;;;;5059404;28;20017;-70
2022/06/20 06:43:16;;;;;;;3.35;1.88;;;;;;;;;;5067362;28;20434;-70
2022/06/20 06:45:42;;;;;;;4.57;1.88;;;;;;;;;;5060396;28;20376;-71
2022/06/20 06:48:10;;;;;;;6.18;2.13;;;;;;;;;;5059113;28;20051;-70
2022/06/20 06:50:54;;;;;;;5.13;2.20;;;;;;;;;;5056497;28;20021;-70
2022/06/20 06:53:23;;;;;;;7.05;2.08;;;;;;;;;;5061620;28;20108;-70
2022/06/20 06:55:50;;;;;;;9.00;2.30;;;;;;;;;;5062800;28;20043;-70
2022/06/20 06:58:34;;;;;;;7.18;2.10;;;;;;;;;;5064514;28;20359;-70
2022/06/20 07:01:02;;;;;;;4.72;2.20;;;;;;;;;;5059640;28;20411;-71
2022/06/20 07:03:30;;;;;;;5.55;2.22;;;;;;;;;;5058701;28;20433;-70
2022/06/20 07:05:59;;;;;;;10.27;3.78;;;;;;;;;;5062065;28;20035;-70
2022/06/20 07:08:27;;;;;;;6.90;2.67;;;;;;;;;;5066062;28;20024;-70
2022/06/20 07:10:52;;;;;;;6.68;3.40;;;;;;;;;;5064485;28;20059;-70
2022/06/20 07:13:23;;;;;;;6.78;2.85;;;;;;;;;;5051842;28;20063;-70
2022/06/20 07:15:51;;;;;;;10.38;2.88;;;;;;;;;;5061511;28;20923;-70
2022/06/20 07:18:29;;;;;;;12.30;3.72;;;;;;;;;;5059435;28;20475;-70
2022/06/20 07:20:54;;;;;;;5.93;2.90;;;;;;;;;;5059572;28;20024;-69
2022/06/20 07:23:19;;;;;;;4.68;2.40;;;;;;;;;;5061819;28;20033;-69
2022/06/20 07:25:46;;;;;;;7.63;3.08;;;;;;;;;;5057785;28;20020;-69
2022/06/20 07:28:14;;;;;;;8.45;2.78;;;;;;;;;;5057216;28;20036;-69
2022/06/20 07:30:45;;;;;;;6.72;2.38;;;;;;;;;;5060292;28;20024;-69
2022/06/20 07:33:15;;;;;;;7.82;2.38;;;;;;;;;;5059999;28;20021;-70
2022/06/20 07:35:45;;;;;;;4.07;2.22;;;;;;;;;;5059390;28;20040;-69
2022/06/20 07:38:13;;;;;;;3.65;2.10;;;;;;;;;;5061442;28;20023;-70
2022/06/20 07:40:42;;;;;;;4.95;2.65;;;;;;;;;;5060436;28;20023;-70
2022/06/20 07:43:09;;;;;;;9.50;2.53;;;;;;;;;;5061842;28;20428;-69
2022/06/20 07:45:37;;;;;;;6.78;2.88;;;;;;;;;;5059301;28;20041;-69
2022/06/20 07:48:05;;;;;;;5.72;2.35;;;;;;;;;;5064856;28;20033;-70
2022/06/20 07:50:33;;;;;;;8.20;2.63;;;;;;;;;;5062601;28;20436;-70
2022/06/20 07:53:04;;;;;;;5.95;2.83;;;;;;;;;;5064428;28;20036;-71
2022/06/20 07:55:31;;;;;;;4.30;1.90;;;;;;;;;;5058634;28;20037;-71
2022/06/20 07:58:03;;;;;;;11.10;3.83;;;;;;;;;;5064411;28;20108;-70
2022/06/20 08:00:32;;;;;;;5.65;2.30;;;;;;;;;;5056652;28;20549;-70
2022/06/20 08:03:06;;;;;;;8.40;2.47;;;;;;;;;;5061930;28;20020;-70
2022/06/20 08:05:37;;;;;;;6.50;2.30;;;;;;;;;;5062801;28;20039;-71
2022/06/20 08:08:05;;;;;;;6.30;2.50;;;;;;;;;;5063200;28;20036;-70
2022/06/20 08:10:33;;;;;;;3.97;2.38;;;;;;;;;;5063416;28;20028;-70
2022/06/20 08:12:59;;;;;;;4.03;2.20;;;;;;;;;;5064990;28;20027;-70
2022/06/20 08:15:26;;;;;;;6.28;2.67;;;;;;;;;;5059638;28;20020;-70
2022/06/20 08:17:52;;;;;;;5.35;2.50;;;;;;;;;;5050917;28;20031;-70
2022/06/20 08:20:17;;;;;;;6.78;2.50;;;;;;;;;;5060172;28;20028;-71
2022/06/20 08:22:47;;;;;;;6.63;2.25;;;;;;;;;;5065545;28;20016;-70
2022/06/20 08:25:22;;;;;;;5.25;2.80;;;;;;;;;;5061106;28;20040;-71
2022/06/20 08:28:00;;;;;;;5.63;2.63;;;;;;;;;;5062515;28;20016;-71
2022/06/20 08:30:37;;;;;;;3.67;2.30;;;;;;;;;;5059040;28;20020;-70
2022/06/20 08:33:08;;;;;;;6.22;2.58;;;;;;;;;;5064969;28;20030;-70
2022/06/20 08:35:39;;;;;;;7.68;2.45;;;;;;;;;;5053860;28;20146;-71
2022/06/20 08:38:17;;;;;;;6.82;2.38;;;;;;;;;;5060233;28;20038;-70
2022/06/20 08:40:54;;;;;;;7.15;2.58;;;;;;;;;;5054872;28;20021;-70
2022/06/20 08:43:30;;;;;;;5.53;2.40;;;;;;;;;;5057444;28;20143;-70
2022/06/20 08:46:14;;;;;;;6.15;2.50;;;;;;;;;;5058731;28;20418;-70
2022/06/20 08:48:42;;;;;;;6.70;2.25;;;;;;;;;;5063430;28;20032;-70
2022/06/20 08:51:19;;;;;;;7.95;2.90;;;;;;;;;;5058526;28;20460;-70
2022/06/20 08:54:02;;;;;;;9.98;2.90;;;;;;;;;;5059484;28;20050;-70
2022/06/20 08:56:45;;;;;;;4.35;2.30;;;;;;;;;;5060421;28;20017;-71
2022/06/20 08:59:28;;;;;;;7.45;2.05;;;;;;;;;;5061989;28;20528;-70
2022/06/20 09:01:54;;;;;;;7.38;2.15;;;;;;;;;;5061059;28;20017;-73
2022/06/20 09:04:26;;;;;;;4.30;2.47;;;;;;;;;;5060246;28;20067;-71
2022/06/20 09:07:10;;;;;;;7.37;2.37;;;;;;;;;;5064184;28;20021;-70
2022/06/20 09:09:36;;;;;;;7.93;2.03;;;;;;;;;;5060923;28;20031;-71
2022/06/20 09:12:09;;;;;;;4.18;2.20;;;;;;;;;;5053398;28;20029;-71
2022/06/20 09:14:43;;;;;;;6.93;2.60;;;;;;;;;;5062466;28;20159;-71
2022/06/20 09:17:27;;;;;;;4.93;2.53;;;;;;;;;;5062448;28;20050;-71
2022/06/20 09:19:52;;;;;;;;;;;;;;;;;;5064996;28;20017;-70
2022/06/20 09:22:23;;;;;;;5.68;1.95;;;;;;;;;;5059667;28;20018;-73
2022/06/20 09:25:07;;;;;;;8.30;2.20;;;;;;;;;;5063144;28;20162;-72
2022/06/20 09:27:32;;;;;;;;;;;;;;;;;;5062005;28;20028;-72
2022/06/20 09:30:18;;;;;;;6.65;2.42;;;;;;;;;;5063017;28;19913;-72
2022/06/20 09:33:02;;;;;;;5.70;2.78;;;;;;;;;;5069951;28;20069;-72
2022/06/20 09:35:28;;;;;;;;;;;;;;;;;;5066265;28;20086;-71
2022/06/20 09:38:11;;;;;;;6.67;3.27;;;;;;;;;;5064679;28;20203;-72
2022/06/20 09:40:48;;;;;;;8.07;2.97;;;;;;;;;;5058734;28;20276;-71
2022/06/20 09:43:35;;;;;;;4.90;2.13;;;;;;;;;;5064128;28;20103;-72
2022/06/20 09:46:19;;;;;;;9.23;2.30;;;;;;;;;;5064290;28;20031;-72
2022/06/20 09:48:53;;;;;;;8.52;2.70;;;;;;;;;;5063694;28;20401;-70
2022/06/20 09:51:28;;;;;;;7.93;2.50;;;;;;;;;;5068968;28;20067;-71
2022/06/20 09:54:13;;;;;;;5.30;2.20;;;;;;;;;;5068827;28;20016;-73
2022/06/20 09:56:57;;;;;;;6.45;2.78;;;;;;;;;;5066884;28;20309;-70
2022/06/20 09:59:30;;;;;;;6.65;2.30;;;;;;;;;;5066424;28;20090;-72
2022/06/20 10:02:05;;;;;;;7.40;2.15;;;;;;;;;;5068567;28;20062;-72
2022/06/20 10:04:30;;;;;;;4.57;2.15;;;;;;;;;;5066897;28;20029;-72
2022/06/20 10:07:17;;;;;;;7.53;2.28;;;;;;;;;;5056011;28;20032;-70
2022/06/20 10:10:06;;;;;;;6.07;2.40;;;;;;;;;;5066608;28;20119;-71
2022/06/20 10:12:49;;;;;;;5.90;2.20;;;;;;;;;;5038560;28;20024;-70
2022/06/20 10:15:22;;;;;;;8.43;2.40;;;;;;;;;;5059997;28;20359;-70
2022/06/20 10:17:58;;;;;;;3.92;2.25;;;;;;;;;;5060736;28;20070;-71
2022/06/20 10:20:26;;;;;;;8.15;2.58;;;;;;;;;;5065032;28;20028;-72
2022/06/20 10:22:54;;;;;;;5.25;2.10;;;;;;;;;;5063817;28;20031;-71
2022/06/20 10:25:37;;;;;;;4.88;2.30;;;;;;;;;;5053774;28;20479;-72
2022/06/20 10:28:14;;;;;;;7.55;2.30;;;;;;;;;;5065381;28;20107;-71
2022/06/20 10:31:09;;;;;;;7.32;2.60;;;;;;;;;;5060035;28;20028;-71
2022/06/20 10:33:40;;;;;;;7.07;2.58;;;;;;;;;;5043426;28;20391;-71
2022/06/20 10:36:17;;;;;;;7.03;2.45;;;;;;;;;;5056101;28;20042;-70
2022/06/20 10:38:47;;;;;;;6.80;2.13;;;;;;;;;;5057380;28;20028;-71
2022/06/20 10:41:15;;;;;;;9.23;2.63;;;;;;;;;;5065003;28;20437;-71
2022/06/20 10:43:48;;;;;;;4.75;2.03;;;;;;;;;;5047356;28;20477;-71
2022/06/20 10:46:13;;;;;;;9.18;2.85;;;;;;;;;;5061439;28;20020;-71
2022/06/20 10:48:57;;;;;;;6.25;2.70;;;;;;;;;;5063872;28;20033;-71
2022/06/20 10:51:30;;;;;;;8.00;2.78;;;;;;;;;;5059605;28;20492;-71
2022/06/20 10:53:55;;;;;;;9.82;2.60;;;;;;;;;;5062294;28;20154;-71
2022/06/20 10:56:37;;;;;;;7.07;2.73;;;;;;;;;;5066009;28;20656;-70
2022/06/20 10:59:10;;;;;;;5.35;2.10;;;;;;;;;;5062852;28;20372;-73
2022/06/20 11:01:40;;;;;;;8.25;2.38;;;;;;;;;;5066151;28;20016;-72
2022/06/20 11:04:20;;;;;;;8.70;2.40;;;;;;;;;;5061126;28;20055;-71
2022/06/20 11:06:46;;;;;;;6.60;2.83;;;;;;;;;;5061947;28;20044;-71
2022/06/20 11:09:22;;;;;;;7.17;2.30;;;;;;;;;;5060929;28;20177;-71
2022/06/20 11:11:58;;;;;;;7.72;2.83;;;;;;;;;;5064721;28;20094;-73
2022/06/20 11:14:46;;;;;;;8.23;2.58;;;;;;;;;;5065214;28;20050;-71
2022/06/20 11:17:38;;;;;;;7.53;2.50;;;;;;;;;;5059433;28;20040;-72
2022/06/20 11:20:12;;;;;;;7.18;2.45;;;;;;;;;;5057802;28;20102;-75
2022/06/20 11:22:37;;;;;;;5.78;2.38;;;;;;;;;;5061397;28;20020;-73
2022/06/20 11:25:17;;;;;;;4.57;2.28;;;;;;;;;;5058606;28;20016;-72
2022/06/20 11:27:51;;;;;;;6.15;2.10;;;;;;;;;;5063230;28;20071;-73
2022/06/20 11:30:18;;;;;;;4.75;2.22;;;;;;;;;;5061426;28;20399;-73
2022/06/20 11:32:49;;;;;;;5.45;1.80;;;;;;;;;;5059128;28;20047;-72
2022/06/20 11:35:15;;;;;;;3.88;2.05;;;;;;;;;;5061128;28;20119;-72
2022/06/20 11:37:40;;;;;;;3.65;1.92;;;;;;;;;;5055870;28;20095;-72
2022/06/20 11:40:17;;;;;;;6.87;2.00;;;;;;;;;;5056164;28;20215;-73
2022/06/20 11:43:07;;;;;;;4.88;1.98;;;;;;;;;;5062056;28;20104;-72
2022/06/20 11:45:38;;;;;;;5.07;1.92;;;;;;;;;;5062835;28;20059;-76
2022/06/20 11:48:12;;;;;;;3.90;1.77;;;;;;;;;;5060676;28;20036;-72
2022/06/20 11:50:40;;;;;;;4.60;1.50;;;;;;;;;;5060939;28;20023;-73
2022/06/20 11:53:17;;;;;;;6.43;1.83;;;;;;;;;;5063292;28;20028;-72
2022/06/20 11:56:00;;;;;;;5.57;1.73;;;;;;;;;;5063217;28;20024;-72
2022/06/20 11:58:44;;;;;;;7.78;1.90;;;;;;;;;;5063396;28;20025;-72
2022/06/20 12:01:09;;;;;;;;;;;;;;;;;;5068785;28;20044;-74
2022/06/20 12:03:40;;;;;;;3.20;1.67;;;;;;;;;;5062031;28;19913;-73
2022/06/20 12:06:07;;;;;;;5.88;1.65;;;;;;;;;;5059061;28;20032;-72
2022/06/20 12:08:51;;;;;;;3.92;1.73;;;;;;;;;;5053990;28;20403;-73
2022/06/20 12:11:36;;;;;;;5.13;1.70;;;;;;;;;;5065227;28;20056;-73
2022/06/20 12:14:12;;;;;;;6.78;1.60;;;;;;;;;;5064378;28;20162;-72
2022/06/20 12:16:43;;;;;;;8.50;1.88;;;;;;;;;;5044209;28;20020;-72
2022/06/20 12:24:58;;;;;;;5.57;1.95;;;;;;;;;;5062639;28;20043;-72
2022/06/20 12:27:26;;;;;;;6.38;2.25;;;;;;;;;;5061272;28;20032;-72
2022/06/20 12:29:51;;;;;;;3.85;1.80;;;;;;;;;;5061493;28;20033;-72
2022/06/20 12:32:21;;;;;;;6.80;2.73;;;;;;;;;;5063473;28;20059;-72
2022/06/20 12:34:56;;;;;;;4.68;1.88;;;;;;;;;;5058707;28;20629;-72
2022/06/20 12:37:33;;;;;;;6.07;2.17;;;;;;;;;;5060978;28;20022;-72
2022/06/20 12:40:02;;;;;;;3.55;2.17;;;;;;;;;;5055405;28;20031;-72
2022/06/20 12:42:36;;;;;;;10.82;2.75;;;;;;;;;;5062443;28;20608;-71
2022/06/20 12:45:01;;;;;;;8.43;2.30;;;;;;;;;;5066350;28;20391;-73
2022/06/20 12:47:26;;;;;;;5.40;1.92;;;;;;;;;;5061138;28;20445;-72
2022/06/20 12:49:51;;;;;;;7.43;2.13;;;;;;;;;;5061881;28;20055;-71
2022/06/20 12:52:39;;;;;;;5.75;2.30;;;;;;;;;;5067008;28;20104;-71
2022/06/20 12:55:18;;;;;;;5.55;2.10;;;;;;;;;;5064174;28;20035;-71
2022/06/20 12:57:55;;;;;;;4.13;2.03;;;;;;;;;;5066544;28;20455;-73
2022/06/20 13:00:33;;;;;;;10.48;2.97;;;;;;;;;;5063287;28;20100;-72
2022/06/20 13:03:01;;;;;;;5.72;2.10;;;;;;;;;;5064825;28;20458;-72
2022/06/20 13:05:35;;;;;;;6.25;2.05;;;;;;;;;;5059997;28;20066;-72
2022/06/20 13:08:24;;;;;;;8.70;2.10;;;;;;;;;;5060045;28;20024;-72
2022/06/20 13:11:08;;;;;;;7.35;2.70;;;;;;;;;;5063243;28;20242;-71
2022/06/20 13:13:51;;;;;;;7.20;2.10;;;;;;;;;;5063578;28;20107;-71
2022/06/20 13:16:16;;;;;;;;;;;;;;;;;;5058758;28;20065;-71
2022/06/20 13:18:47;;;;;;;3.47;1.80;;;;;;;;;;5047719;28;20390;-74
2022/06/20 13:21:30;;;;;;;8.30;2.03;;;;;;;;;;5061557;28;20017;-71
2022/06/20 13:23:58;;;;;;;4.95;2.08;;;;;;;;;;5063968;28;20028;-71
2022/06/20 13:26:43;;;;;;;5.65;2.08;;;;;;;;;;5066328;28;20161;-71
2022/06/20 13:29:29;;;;;;;5.63;2.42;;;;;;;;;;5064261;28;20057;-71
2022/06/20 13:31:58;;;;;;;5.75;2.00;;;;;;;;;;5057898;28;20474;-72
2022/06/20 13:34:42;;;;;;;4.55;1.95;;;;;;;;;;5061637;28;20421;-69
2022/06/20 13:37:07;;;;;;;;;;;;;;;;;;5073357;28;20111;-69
2022/06/20 13:39:50;;;;;;;6.45;2.05;;;;;;;;;;5060913;28;20007;-70
2022/06/20 13:42:37;;;;;;;6.63;2.20;;;;;;;;;;5062059;28;20017;-70
2022/06/20 13:45:09;;;;;;;3.38;2.13;;;;;;;;;;5062954;28;20024;-70
2022/06/20 13:47:34;;;;;;;7.50;2.20;;;;;;;;;;5060056;28;20132;-69
2022/06/20 13:50:05;;;;;;;7.93;2.35;;;;;;;;;;5065498;28;20107;-69
2022/06/20 13:52:34;;;;;;;6.90;2.13;;;;;;;;;;5065227;28;20030;-69
2022/06/20 13:55:10;;;;;;;6.05;1.80;;;;;;;;;;5065389;28;20047;-69
2022/06/20 13:57:35;;;;;;;5.70;1.92;;;;;;;;;;5065562;28;20516;-68
2022/06/20 14:00:05;;;;;;;4.10;1.90;;;;;;;;;;5064002;28;20483;-73
2022/06/20 14:02:30;;;;;;;6.53;1.75;;;;;;;;;;5060645;28;20013;-70
2022/06/20 14:04:56;;;;;;;5.63;1.95;;;;;;;;;;5062441;28;20039;-69
2022/06/20 14:07:24;;;;;;;5.45;2.42;;;;;;;;;;5063564;28;20032;-69
2022/06/20 14:09:53;;;;;;;5.32;2.17;;;;;;;;;;5067295;28;20115;-70
2022/06/20 14:12:29;;;;;;;3.45;1.85;;;;;;;;;;5064130;28;20021;-71
2022/06/20 14:14:56;;;;;;;5.47;2.30;;;;;;;;;;5065268;28;20021;-69
2022/06/20 14:17:23;;;;;;;11.57;2.30;;;;;;;;;;5062248;28;20138;-70
2022/06/20 14:19:53;;;;;;;11.57;2.42;;;;;;;;;;5064099;28;20501;-69
2022/06/20 14:22:31;;;;;;;7.80;2.42;;;;;;;;;;5061769;28;20736;-69
2022/06/20 14:24:57;;;;;;;7.97;2.28;;;;;;;;;;5060210;28;20051;-69
2022/06/20 14:27:27;;;;;;;5.63;2.20;;;;;;;;;;5065340;28;20052;-69
2022/06/20 14:29:58;;;;;;;11.25;2.28;;;;;;;;;;5050179;28;20073;-69
2022/06/20 14:32:30;;;;;;;5.88;2.08;;;;;;;;;;5066916;28;20063;-68
2022/06/20 14:37:48;;;;;;;5.80;2.03;;;;;;;;;;5063190;28;20055;-69
2022/06/20 14:40:19;;;;;;;5.78;1.95;;;;;;;;;;5062710;28;20055;-69
2022/06/20 14:42:52;;;;;;;5.15;2.00;;;;;;;;;;5062479;28;20016;-70
2022/06/20 14:45:21;;;;;;;9.80;3.55;;;;;;;;;;5063916;28;20028;-72
2022/06/20 14:47:46;;;;;;;6.05;2.00;;;;;;;;;;5066733;28;20070;-69
2022/06/20 14:50:11;;;;;;;8.40;2.28;;;;;;;;;;5060542;28;20028;-71
2022/06/20 14:52:45;;;;;;;7.00;2.03;;;;;;;;;;5064446;28;20032;-69
2022/06/20 14:55:13;;;;;;;6.07;2.00;;;;;;;;;;5060589;28;20021;-69
2022/06/20 14:57:48;;;;;;;5.82;1.90;;;;;;;;;;5060301;28;20031;-68
2022/06/20 15:00:31;;;;;;;5.45;1.80;;;;;;;;;;5060238;28;20064;-69
2022/06/20 15:02:56;;;;;;;;;;;;;;;;;;5051773;28;20024;-69
2022/06/20 15:05:22;;;;;;;8.35;2.75;;;;;;;;;;5058902;28;20018;-69
2022/06/20 15:08:10;;;;;;;9.13;2.07;;;;;;;;;;5062540;28;20107;-69
2022/06/20 15:10:38;;;;;;;6.60;2.28;;;;;;;;;;5064809;28;20295;-71
2022/06/20 15:13:16;;;;;;;8.15;2.42;;;;;;;;;;5061408;28;20024;-70
2022/06/20 15:15:43;;;;;;;10.27;2.28;;;;;;;;;;5053628;28;20477;-70
2022/06/20 15:18:16;;;;;;;6.43;2.25;;;;;;;;;;5063597;28;20053;-70
2022/06/20 15:20:44;;;;;;;8.32;2.67;;;;;;;;;;5065366;28;20497;-69
2022/06/20 15:23:25;;;;;;;8.52;2.78;;;;;;;;;;5058247;28;20028;-70